Time;durP1;ratioP1;P1;durP2;ratioP2;P2;SDS_P1;SDS_P2;PMS_P1;PMS_P2;Temp;Humidity;BMP_temperature;BMP_pressure;BME280_temperature;BME280_humidity;BME280_pressure;Samples;Min_cycle;Max_cycle;Signal;HPM_P1;HPM_P2
2023/08/06 00:01:49;;;;;;;9.70;6.60;;;;;;;25.78;55.76;99082.66;79474;1296;3011902;-61
2023/08/06 00:04:17;;;;;;;13.00;6.40;;;;;;;25.78;55.64;99076.91;78267;1297;3052184;-62
2023/08/06 00:06:43;;;;;;;9.40;6.50;;;;;;;25.78;55.44;99078.13;79567;1297;3013430;-63
2023/08/06 00:09:10;;;;;;;12.40;6.50;;;;;;;25.78;55.38;99073.84;79549;1294;3011884;-61
2023/08/06 00:11:37;;;;;;;10.20;6.80;;;;;;;25.75;55.42;99070.12;78407;1297;3028409;-61
2023/08/06 00:14:04;;;;;;;9.30;6.50;;;;;;;25.72;55.34;99068.57;79586;1295;3013342;-59
2023/08/06 00:16:31;;;;;;;11.50;6.40;;;;;;;25.71;55.11;99065.46;79532;1295;3012959;-62
2023/08/06 00:18:58;;;;;;;13.10;6.30;;;;;;;25.72;54.92;99059.51;78462;1295;3028530;-63
2023/08/06 00:21:25;;;;;;;9.20;6.50;;;;;;;25.73;54.95;99058.48;79590;1295;3013642;-63
2023/08/06 00:23:52;;;;;;;10.60;6.80;;;;;;;25.74;55.02;99051.82;79507;1293;3011778;-62
2023/08/06 00:26:20;;;;;;;9.60;6.40;;;;;;;25.73;55.02;99046.11;78363;1298;3027357;-58
2023/08/06 00:28:46;;;;;;;8.50;6.10;;;;;;;25.70;55.33;99044.48;79506;1297;3013638;-61
2023/08/06 00:31:13;;;;;;;10.20;6.40;;;;;;;25.67;55.32;99046.09;79355;1295;3011658;-59
2023/08/06 00:33:40;;;;;;;10.00;6.60;;;;;;;25.64;55.12;99045.05;78473;1295;3028116;-60
2023/08/06 00:36:07;;;;;;;13.10;6.60;;;;;;;25.61;55.35;99042.33;79499;1295;3013211;-58
2023/08/06 00:38:35;;;;;;;9.80;6.70;;;;;;;25.58;55.54;99036.45;79514;1293;3011660;-57
2023/08/06 00:41:02;;;;;;;12.00;6.10;;;;;;;25.52;55.80;99034.60;78280;1295;3050285;-60
2023/08/06 00:43:29;;;;;;;6.90;6.10;;;;;;;25.46;55.52;99035.66;79340;1300;3012925;-59
2023/08/06 00:45:56;;;;;;;11.30;6.10;;;;;;;25.50;55.36;99027.90;79322;1301;3013245;-60
2023/08/06 00:48:23;;;;;;;8.10;6.20;;;;;;;25.50;55.56;99027.11;78181;1301;3028563;-58
2023/08/06 00:50:50;;;;;;;10.40;6.50;;;;;;;25.45;55.73;99020.88;79300;1301;3013708;-58
2023/08/06 00:53:16;;;;;;;11.10;6.10;;;;;;;25.43;55.76;99022.41;79342;1295;3013683;-61
2023/08/06 00:55:44;;;;;;;14.90;6.50;;;;;;;25.42;55.74;99017.52;78395;1295;3026615;-60
2023/08/06 00:58:12;;;;;;;7.60;6.20;;;;;;;25.38;55.69;99015.23;79487;1296;3013803;-57
2023/08/06 01:00:40;;;;;;;8.20;5.90;;;;;;;25.33;55.80;99014.23;79359;1295;3011665;-57
2023/08/06 01:03:08;;;;;;;12.20;6.00;;;;;;;25.34;55.70;99015.07;78352;1300;3053577;-60
2023/08/06 01:05:34;;;;;;;10.10;6.20;;;;;;;25.31;55.87;99004.30;79497;1300;3013080;-61
2023/08/06 01:08:29;;;;;;;8.30;6.20;;;;;;;25.32;55.72;99008.80;79254;1300;3013055;-61
2023/08/06 01:11:18;;;;;;;10.60;6.40;;;;;;;25.32;55.46;99008.23;78405;1295;3050080;-60
2023/08/06 01:13:49;;;;;;;8.90;5.60;;;;;;;25.34;55.46;99004.25;78183;1295;3053421;-61
2023/08/06 01:16:20;;;;;;;11.00;6.50;;;;;;;25.30;55.73;98997.38;79536;1299;3011646;-59
2023/08/06 01:18:49;;;;;;;10.00;5.90;;;;;;;25.26;55.61;99000.92;78347;1297;3053904;-59
2023/08/06 01:21:16;;;;;;;9.70;6.00;;;;;;;25.27;55.49;99001.85;79548;1294;3012526;-59
2023/08/06 01:23:43;;;;;;;9.20;5.90;;;;;;;25.26;55.54;98999.77;79579;1293;3011555;-59
2023/08/06 01:26:26;;;;;;;9.80;6.30;;;;;;;25.23;55.72;99000.16;78383;1297;3056184;-60
2023/08/06 01:29:06;;;;;;;14.00;6.20;;;;;;;25.22;55.75;98998.84;78078;1300;3050464;-61
2023/08/06 01:31:36;;;;;;;14.10;5.90;;;;;;;25.20;55.75;98996.96;78227;1296;3053520;-60
2023/08/06 01:34:04;;;;;;;9.70;6.40;;;;;;;25.19;55.64;98993.95;79614;1294;3012906;-60
2023/08/06 01:36:33;;;;;;;17.80;6.70;;;;;;;25.17;55.87;98991.79;79101;1297;3013952;-60
2023/08/06 01:39:00;;;;;;;8.40;6.20;;;;;;;25.14;55.95;98988.01;79432;1301;3012936;-61
2023/08/06 01:41:27;;;;;;;9.50;6.00;;;;;;;25.12;55.93;98984.35;79254;1301;3011709;-61
2023/08/06 01:43:55;;;;;;;9.60;6.20;;;;;;;25.12;55.81;98981.23;78237;1295;3028523;-60
2023/08/06 01:46:21;;;;;;;9.40;5.90;;;;;;;25.12;55.85;98979.80;79493;1295;3013666;-61
2023/08/06 01:48:47;;;;;;;9.50;6.50;;;;;;;25.11;55.91;98979.20;79473;1294;3013344;-59
2023/08/06 01:51:15;;;;;;;12.80;6.30;;;;;;;25.10;56.06;98979.90;78386;1295;3028776;-60
2023/08/06 01:53:42;;;;;;;9.40;5.90;;;;;;;25.08;56.22;98976.90;79770;1297;3013152;-64
2023/08/06 01:56:08;;;;;;;10.70;6.50;;;;;;;25.06;56.15;98978.08;79499;1297;3011612;-64
2023/08/06 01:58:36;;;;;;;14.70;6.70;;;;;;;25.07;55.99;98977.39;78109;1300;3029116;-62
2023/08/06 02:01:03;;;;;;;10.50;6.60;;;;;;;25.05;56.04;98978.37;79563;1296;3013394;-62
2023/08/06 02:03:30;;;;;;;9.90;6.50;;;;;;;25.02;56.15;98973.77;79551;1294;3011527;-63
2023/08/06 02:05:57;;;;;;;13.50;6.50;;;;;;;25.02;56.21;98970.80;78187;1300;3028512;-61
2023/08/06 02:08:24;;;;;;;10.20;6.60;;;;;;;25.02;56.07;98969.38;79779;1295;3013043;-60
2023/08/06 02:10:50;;;;;;;10.50;6.00;;;;;;;25.00;56.15;98966.39;79588;1293;3013467;-62
2023/08/06 02:13:18;;;;;;;9.30;6.10;;;;;;;24.98;56.17;98965.10;78347;1297;3028621;-61
2023/08/06 02:15:47;;;;;;;8.70;5.90;;;;;;;24.95;56.36;98960.88;79675;1295;3013370;-60
2023/08/06 02:18:17;;;;;;;10.00;6.60;;;;;;;24.97;56.24;98961.91;79612;1294;3011863;-59
2023/08/06 02:20:55;;;;;;;13.20;6.10;;;;;;;24.91;56.40;98962.10;78321;1298;3053325;-61
2023/08/06 02:23:24;;;;;;;11.20;6.20;;;;;;;24.91;56.39;98960.15;78383;1295;3054650;-59
2023/08/06 02:26:00;;;;;;;9.60;6.20;;;;;;;24.91;56.28;98963.01;79634;1295;3013588;-63
2023/08/06 02:28:30;;;;;;;11.70;6.60;;;;;;;24.90;56.53;98962.09;78417;1295;3056349;-60
2023/08/06 02:30:57;;;;;;;11.20;6.00;;;;;;;24.89;56.61;98960.44;79697;1296;3013224;-60
2023/08/06 02:33:23;;;;;;;9.50;6.40;;;;;;;24.85;56.85;98957.86;79653;1293;3011538;-59
2023/08/06 02:35:51;;;;;;;11.00;6.60;;;;;;;24.83;56.83;98958.30;78285;1298;3052003;-62
2023/08/06 02:38:18;;;;;;;8.00;6.10;;;;;;;24.80;56.85;98956.95;79424;1301;3018397;-62
2023/08/06 02:40:45;;;;;;;11.60;6.50;;;;;;;24.79;56.88;98957.90;79294;1295;3011614;-60
2023/08/06 02:43:13;;;;;;;12.70;6.40;;;;;;;24.81;56.84;98961.09;78345;1297;3056651;-62
2023/08/06 02:45:40;;;;;;;11.90;6.50;;;;;;;24.81;56.96;98961.67;79399;1296;3013637;-60
2023/08/06 02:48:07;;;;;;;10.40;6.40;;;;;;;24.83;56.87;98963.40;79520;1296;3012763;-56
2023/08/06 02:50:39;;;;;;;8.20;6.10;;;;;;;24.83;57.02;98960.20;78329;1295;3028817;-60
2023/08/06 02:53:07;;;;;;;10.30;6.40;;;;;;;24.80;57.17;98958.69;79594;1297;3012732;-60
2023/08/06 02:55:35;;;;;;;12.40;6.80;;;;;;;24.80;57.27;98962.62;78386;1296;3067444;-60
2023/08/06 02:58:04;;;;;;;14.30;6.90;;;;;;;24.83;57.18;98964.29;79385;1294;3011589;-60
2023/08/06 03:00:34;;;;;;;12.30;6.10;;;;;;;24.83;57.36;98962.43;78261;1294;3057697;-59
2023/08/06 03:03:02;;;;;;;11.30;6.20;;;;;;;24.82;57.29;98960.02;79528;1295;3013904;-60
2023/08/06 03:05:38;;;;;;;14.50;6.70;;;;;;;24.81;57.33;98961.65;78431;1297;3050367;-60
2023/08/06 03:08:05;;;;;;;11.00;6.00;;;;;;;24.82;57.30;98960.64;79590;1297;3019305;-60
2023/08/06 03:10:32;;;;;;;10.20;6.60;;;;;;;24.84;57.17;98961.23;79538;1296;3011666;-63
2023/08/06 03:13:01;;;;;;;10.50;6.40;;;;;;;24.84;57.26;98961.94;78294;1297;3050894;-63
2023/08/06 03:15:28;;;;;;;9.50;6.70;;;;;;;24.85;57.14;98958.96;79595;1295;3020597;-60
2023/08/06 03:17:56;;;;;;;13.20;6.90;;;;;;;24.85;57.07;98958.59;79284;1301;3011874;-63
2023/08/06 03:20:25;;;;;;;10.30;6.70;;;;;;;24.87;56.98;98957.77;78453;1297;3050387;-61
2023/08/06 03:22:52;;;;;;;11.30;5.90;;;;;;;24.87;57.16;98955.08;79376;1298;3013355;-61
2023/08/06 03:25:18;;;;;;;12.10;6.20;;;;;;;24.89;56.98;98948.86;79365;1300;3011869;-60
2023/08/06 03:27:48;;;;;;;7.50;5.90;;;;;;;24.92;56.89;98950.66;78165;1298;3052129;-61
2023/08/06 03:30:17;;;;;;;8.90;6.00;;;;;;;24.94;56.75;98949.52;79620;1292;3012779;-58
2023/08/06 03:32:44;;;;;;;8.50;5.90;;;;;;;24.97;56.79;98951.30;79707;1293;3011635;-60
2023/08/06 03:35:12;;;;;;;19.80;7.60;;;;;;;25.00;56.89;98950.27;78333;1298;3050078;-61
2023/08/06 03:37:38;;;;;;;11.80;6.20;;;;;;;25.01;57.10;98951.03;79618;1298;3012961;-60
2023/08/06 03:40:07;;;;;;;14.80;6.10;;;;;;;25.01;57.15;98946.31;79528;1297;3011293;-58
2023/08/06 03:42:35;;;;;;;9.40;6.00;;;;;;;25.03;57.28;98945.17;78116;1301;3051800;-61
2023/08/06 03:45:03;;;;;;;16.50;6.80;;;;;;;25.05;57.34;98952.77;79489;1298;3012794;-60
2023/08/06 03:47:30;;;;;;;12.10;6.40;;;;;;;25.06;57.57;98947.45;79527;1293;3011649;-59
2023/08/06 03:49:58;;;;;;;9.00;5.90;;;;;;;25.07;57.56;98944.94;78095;1295;3050257;-61
2023/08/06 03:52:24;;;;;;;20.00;8.00;;;;;;;25.10;57.38;98944.58;79632;1298;3013411;-61
2023/08/06 03:54:51;;;;;;;17.00;7.60;;;;;;;25.13;56.98;98940.08;79392;1301;3011469;-61
2023/08/06 03:57:19;;;;;;;15.40;7.20;;;;;;;25.17;57.19;98940.05;78041;1300;3025966;-63
2023/08/06 03:59:45;;;;;;;16.10;7.90;;;;;;;25.18;57.32;98943.29;79303;1294;3013159;-59
2023/08/06 04:02:12;;;;;;;20.60;7.30;;;;;;;25.18;56.92;98939.23;79567;1298;3012262;-61
2023/08/06 04:04:39;;;;;;;17.40;7.50;;;;;;;25.20;56.71;98940.45;78109;1301;3028756;-60
2023/08/06 04:07:06;;;;;;;16.00;7.50;;;;;;;25.24;56.71;98938.27;79291;1301;3013139;-64
2023/08/06 04:09:33;;;;;;;15.50;6.80;;;;;;;25.27;56.53;98935.80;79537;1298;3013534;-61
2023/08/06 04:12:02;;;;;;;17.40;7.10;;;;;;;25.31;56.42;98940.06;78420;1294;3025783;-62
2023/08/06 04:14:30;;;;;;;22.10;7.40;;;;;;;25.34;56.61;98939.19;79607;1292;3014196;-64
2023/08/06 04:16:58;;;;;;;14.40;6.80;;;;;;;25.36;56.68;98937.23;78391;1297;3028849;-59
2023/08/06 04:19:25;;;;;;;12.30;6.10;;;;;;;25.41;56.66;98937.94;79573;1295;3011904;-62
2023/08/06 04:21:52;;;;;;;14.50;7.50;;;;;;;25.44;56.43;98934.50;79550;1298;3011408;-60
2023/08/06 04:24:19;;;;;;;13.30;6.20;;;;;;;25.49;56.22;98931.17;78067;1301;3028401;-59
2023/08/06 04:26:46;;;;;;;17.10;7.60;;;;;;;25.54;56.29;98932.85;79697;1297;3013381;-59
2023/08/06 04:29:13;;;;;;;16.60;6.80;;;;;;;25.58;56.45;98931.89;79368;1301;3011809;-61
2023/08/06 04:31:40;;;;;;;14.30;6.90;;;;;;;25.62;56.51;98935.59;78412;1298;3029034;-59
2023/08/06 04:34:09;;;;;;;14.50;7.10;;;;;;;25.67;56.31;98937.66;79457;1296;3015082;-60
2023/08/06 04:36:40;;;;;;;13.70;6.60;;;;;;;25.72;55.91;98932.00;78977;1298;3013086;-60
2023/08/06 04:39:08;;;;;;;20.20;7.60;;;;;;;25.76;55.86;98930.69;79657;1298;3013248;-62
2023/08/06 04:41:35;;;;;;;21.30;7.20;;;;;;;25.79;55.43;98926.23;79654;1295;3012814;-59
2023/08/06 04:44:04;;;;;;;24.40;7.90;;;;;;;25.84;55.04;98927.97;78219;1297;3052006;-62
2023/08/06 04:46:31;;;;;;;21.80;8.10;;;;;;;25.90;55.20;98924.61;79565;1292;3013021;-61
2023/08/06 04:48:57;;;;;;;23.50;8.10;;;;;;;25.95;55.21;98925.40;79540;1295;3013330;-62
2023/08/06 04:51:25;;;;;;;21.50;7.60;;;;;;;26.01;54.79;98924.33;78254;1297;3049669;-60
2023/08/06 04:53:51;;;;;;;28.30;7.90;;;;;;;26.07;54.63;98919.22;79602;1297;3013561;-60
2023/08/06 04:56:18;;;;;;;22.70;7.50;;;;;;;26.11;54.61;98918.48;79576;1298;3011776;-60
2023/08/06 04:58:46;;;;;;;28.40;7.40;;;;;;;26.18;54.53;98914.17;78246;1297;3026468;-63
2023/08/06 05:01:12;;;;;;;29.30;8.00;;;;;;;26.22;54.43;98910.81;79609;1298;3013351;-60
2023/08/06 05:03:39;;;;;;;21.80;7.30;;;;;;;26.31;54.13;98910.10;79474;1298;3011696;-61
2023/08/06 05:06:07;;;;;;;27.70;8.10;;;;;;;26.39;54.14;98908.94;78327;1296;3026308;-64
2023/08/06 05:08:33;;;;;;;18.20;6.90;;;;;;;26.44;54.04;98908.63;79531;1298;3013502;-61
2023/08/06 05:11:00;;;;;;;18.90;7.40;;;;;;;26.51;54.03;98906.95;79560;1296;3011718;-61
2023/08/06 05:13:28;;;;;;;17.90;6.70;;;;;;;26.58;53.95;98903.42;78285;1297;3026662;-61
2023/08/06 05:15:54;;;;;;;16.70;7.10;;;;;;;26.66;53.81;98911.31;79714;1295;3012688;-60
2023/08/06 05:18:21;;;;;;;22.20;7.50;;;;;;;26.73;53.63;98907.91;79499;1296;3011901;-63
2023/08/06 05:20:49;;;;;;;22.20;7.00;;;;;;;26.81;53.53;98907.52;78292;1298;3027781;-60
2023/08/06 05:23:16;;;;;;;20.30;6.80;;;;;;;26.88;53.15;98900.29;79510;1298;3013021;-59
2023/08/06 05:25:43;;;;;;;23.20;7.80;;;;;;;26.94;52.83;98896.86;79549;1297;3011636;-58
2023/08/06 05:28:11;;;;;;;21.30;7.00;;;;;;;27.01;52.78;98896.01;78417;1298;3028357;-58
2023/08/06 05:30:40;;;;;;;28.20;8.00;;;;;;;27.07;53.42;98898.59;79467;1295;3012755;-61
2023/08/06 05:33:09;;;;;;;30.20;8.50;;;;;;;27.14;53.18;98901.05;78901;1296;3011775;-57
2023/08/06 05:35:36;;;;;;;25.80;7.80;;;;;;;27.22;52.80;98896.61;79566;1297;3013401;-59
2023/08/06 05:38:02;;;;;;;32.30;8.40;;;;;;;27.32;53.05;98894.23;79646;1298;3011774;-60
2023/08/06 05:40:32;;;;;;;30.10;8.60;;;;;;;27.40;52.89;98893.05;78272;1298;3026919;-57
2023/08/06 05:42:59;;;;;;;24.60;8.10;;;;;;;27.49;52.40;98889.55;79364;1296;3013424;-62
2023/08/06 05:45:25;;;;;;;29.70;8.20;;;;;;;27.57;52.58;98886.88;79494;1296;3011306;-61
2023/08/06 05:47:57;;;;;;;40.30;10.80;;;;;;;27.67;52.71;98889.52;78353;1295;3049505;-60
2023/08/06 05:50:24;;;;;;;42.90;9.30;;;;;;;27.76;52.18;98888.08;79513;1298;3011670;-62
2023/08/06 05:52:52;;;;;;;31.50;8.60;;;;;;;27.82;51.27;98882.13;78204;1298;3029176;-59
2023/08/06 05:55:20;;;;;;;28.70;7.80;;;;;;;27.89;50.39;98882.04;79694;1298;3020879;-62
2023/08/06 05:57:46;;;;;;;26.00;7.50;;;;;;;27.97;49.88;98877.86;79691;1297;3011687;-60
2023/08/06 06:00:14;;;;;;;40.00;8.60;;;;;;;28.05;50.15;98876.48;78279;1298;3052633;-61
2023/08/06 06:02:41;;;;;;;55.30;10.20;;;;;;;28.12;49.72;98875.14;79721;1294;3013204;-58
2023/08/06 06:05:08;;;;;;;73.00;13.00;;;;;;;28.19;50.03;98869.55;79720;1294;3013824;-62
2023/08/06 06:07:36;;;;;;;69.40;13.20;;;;;;;28.27;49.79;98867.15;78373;1298;3028164;-62
2023/08/06 06:10:02;;;;;;;65.10;11.70;;;;;;;28.37;49.72;98864.54;79611;1307;3011774;-62
2023/08/06 06:12:29;;;;;;;46.80;10.30;;;;;;;28.45;49.26;98862.52;79650;1298;3012164;-60
2023/08/06 06:14:57;;;;;;;47.40;9.70;;;;;;;28.52;49.12;98862.27;78488;1297;3027947;-62
2023/08/06 06:17:23;;;;;;;32.40;9.10;;;;;;;28.58;49.23;98856.10;79734;1295;3013457;-60
2023/08/06 06:19:50;;;;;;;41.80;9.40;;;;;;;28.68;49.36;98855.63;79574;1298;3012075;-60
2023/08/06 06:22:18;;;;;;;28.80;8.10;;;;;;;28.77;49.09;98853.48;78542;1298;3025144;-61
2023/08/06 06:24:44;;;;;;;30.70;8.90;;;;;;;28.85;48.57;98850.38;79759;1298;3019127;-60
2023/08/06 06:27:11;;;;;;;25.00;7.30;;;;;;;28.95;48.82;98847.31;79668;1298;3011944;-63
2023/08/06 06:29:39;;;;;;;27.70;7.40;;;;;;;29.04;48.43;98848.59;78415;1294;3027620;-58
2023/08/06 06:32:06;;;;;;;33.40;7.10;;;;;;;29.12;48.27;98842.54;79652;1297;3013161;-62
2023/08/06 06:34:32;;;;;;;21.30;7.00;;;;;;;29.22;47.99;98843.20;79684;1297;3011652;-61
2023/08/06 06:37:00;;;;;;;33.00;8.20;;;;;;;29.31;47.87;98843.69;78175;1297;3028017;-61
2023/08/06 06:39:27;;;;;;;21.70;7.50;;;;;;;29.40;47.69;98846.58;79616;1295;3013573;-60
2023/08/06 06:41:53;;;;;;;22.90;7.20;;;;;;;29.49;47.50;98846.77;79532;1298;3012760;-63
2023/08/06 06:44:24;;;;;;;19.00;7.10;;;;;;;29.57;47.75;98845.81;75653;1298;3054295;-62
2023/08/06 06:46:51;;;;;;;21.70;7.20;;;;;;;29.64;47.06;98847.79;79721;1297;3013739;-61
2023/08/06 06:49:17;;;;;;;22.80;6.80;;;;;;;29.75;47.06;98851.29;79569;1293;3013330;-62
2023/08/06 06:51:45;;;;;;;20.10;6.60;;;;;;;29.84;46.71;98850.07;78472;1298;3027317;-60
2023/08/06 06:54:11;;;;;;;25.30;5.80;;;;;;;29.92;46.44;98843.33;79781;1295;3012907;-62
2023/08/06 06:56:38;;;;;;;14.00;5.60;;;;;;;30.00;45.99;98842.59;79592;1298;3011497;-60
2023/08/06 06:59:06;;;;;;;12.10;5.50;;;;;;;30.10;45.81;98835.95;78365;1298;3026317;-58
2023/08/06 07:01:32;;;;;;;19.00;5.80;;;;;;;30.20;45.76;98830.98;79516;1297;3013167;-58
2023/08/06 07:04:04;;;;;;;16.00;6.50;;;;;;;30.33;45.44;98831.30;79569;1297;3011897;-60
2023/08/06 07:06:32;;;;;;;17.80;5.50;;;;;;;30.45;45.58;98830.65;78436;1297;3050774;-59
2023/08/06 07:08:58;;;;;;;26.30;6.20;;;;;;;30.53;44.64;98828.51;79625;1298;3021067;-58
2023/08/06 07:11:25;;;;;;;26.60;6.70;;;;;;;30.60;43.98;98825.56;79600;1298;3012892;-61
2023/08/06 07:13:57;;;;;;;28.70;6.90;;;;;;;30.69;43.71;98825.35;78292;1298;3028263;-62
2023/08/06 07:16:24;;;;;;;;;;;;;;;30.77;43.47;98827.90;79662;1298;3011419;-60
2023/08/06 07:18:53;;;;;;;29.90;7.20;;;;;;;30.83;43.70;98823.14;78359;1298;3048867;-62
2023/08/06 07:21:20;;;;;;;33.70;8.00;;;;;;;30.92;43.61;98820.43;79564;1298;3013488;-59
2023/08/06 07:23:48;;;;;;;31.80;7.50;;;;;;;31.00;42.45;98815.75;79510;1299;3011884;-60
2023/08/06 07:26:16;;;;;;;25.50;6.60;;;;;;;31.10;42.77;98812.50;78355;1298;3052089;-60
2023/08/06 07:28:43;;;;;;;38.60;7.20;;;;;;;31.20;42.52;98814.35;79554;1296;3011657;-59
2023/08/06 07:31:09;;;;;;;21.10;6.70;;;;;;;31.31;42.85;98810.20;79528;1298;3011735;-62
2023/08/06 07:33:37;;;;;;;43.30;8.30;;;;;;;31.43;42.22;98804.91;78392;1298;3048891;-57
2023/08/06 07:36:11;;;;;;;49.50;9.70;;;;;;;31.50;41.34;98809.64;79525;1297;3013134;-64
2023/08/06 07:38:39;;;;;;;;;;;;;;;31.60;41.20;98805.88;78304;1298;3044578;-60
2023/08/06 07:41:05;;;;;;;32.10;7.40;;;;;;;31.68;41.08;98804.92;79547;1298;3018520;-58
2023/08/06 07:43:32;;;;;;;30.20;6.70;;;;;;;31.76;40.44;98796.07;79543;1296;3011600;-59
2023/08/06 07:46:00;;;;;;;25.00;6.10;;;;;;;31.85;40.12;98799.20;78257;1298;3028254;-60
2023/08/06 07:48:27;;;;;;;19.70;5.20;;;;;;;31.96;39.77;98799.46;79589;1293;3013109;-62
2023/08/06 07:50:54;;;;;;;18.50;5.40;;;;;;;32.08;39.79;98793.82;79509;1296;3011785;-64
2023/08/06 07:53:23;;;;;;;35.50;5.80;;;;;;;32.15;39.37;98790.61;78281;1298;3026419;-65
2023/08/06 07:55:53;;;;;;;51.90;9.00;;;;;;;32.25;39.19;98784.30;79701;1298;3013285;-59
2023/08/06 07:58:21;;;;;;;49.40;7.70;;;;;;;32.36;37.94;98783.88;78344;1298;3052436;-58
2023/08/06 08:00:47;;;;;;;37.40;7.60;;;;;;;32.48;38.23;98782.55;79563;1296;3012839;-60
2023/08/06 08:03:15;;;;;;;27.80;6.10;;;;;;;32.56;37.75;98783.25;79546;1298;3011545;-62
2023/08/06 08:05:43;;;;;;;27.10;5.50;;;;;;;32.64;37.45;98782.15;78310;1297;3028824;-61
2023/08/06 08:08:09;;;;;;;22.40;5.20;;;;;;;32.73;37.41;98780.90;79652;1295;3018537;-62
2023/08/06 08:10:37;;;;;;;18.60;5.80;;;;;;;32.79;37.25;98783.43;79468;1296;3013561;-61
2023/08/06 08:13:05;;;;;;;25.60;5.30;;;;;;;32.90;37.03;98779.90;78270;1298;3051255;-58
2023/08/06 08:15:32;;;;;;;24.00;5.80;;;;;;;32.98;36.60;98777.70;79543;1294;3020601;-61
2023/08/06 08:17:59;;;;;;;32.30;6.40;;;;;;;33.06;36.41;98768.14;79519;1297;3011989;-60
2023/08/06 08:20:31;;;;;;;36.40;6.90;;;;;;;33.10;35.85;98760.40;78248;1297;3029652;-59
2023/08/06 08:23:01;;;;;;;40.50;7.00;;;;;;;33.20;35.60;98769.94;79563;1294;3013034;-59
2023/08/06 08:25:29;;;;;;;26.80;5.60;;;;;;;33.26;35.30;98761.31;78299;1298;3053452;-61
2023/08/06 08:27:56;;;;;;;41.00;6.50;;;;;;;33.33;34.80;98765.67;79602;1298;3013218;-60
2023/08/06 08:30:24;;;;;;;40.70;6.90;;;;;;;33.40;34.64;98759.04;79585;1298;3011617;-58
2023/08/06 08:32:52;;;;;;;43.00;8.30;;;;;;;33.46;34.98;98756.27;78336;1297;3049525;-58
2023/08/06 08:35:19;;;;;;;33.50;7.10;;;;;;;33.53;34.57;98750.04;79657;1297;3013268;-59
2023/08/06 08:37:45;;;;;;;22.60;5.60;;;;;;;33.57;34.10;98745.50;79628;1296;3013945;-59
2023/08/06 08:40:14;;;;;;;38.30;6.40;;;;;;;33.63;33.48;98745.05;78370;1298;3017445;-60
2023/08/06 08:42:41;;;;;;;32.40;6.20;;;;;;;33.78;33.71;98744.98;79566;1296;3015569;-62
2023/08/06 08:45:13;;;;;;;33.40;5.80;;;;;;;33.84;33.96;98738.55;79565;1295;3012782;-68
2023/08/06 08:47:42;;;;;;;40.20;6.50;;;;;;;33.85;33.71;98735.28;78574;1298;3050254;-70
2023/08/06 08:50:10;;;;;;;21.70;5.90;;;;;;;33.99;33.89;98733.88;79722;1299;3013154;-62
2023/08/06 08:52:38;;;;;;;41.40;7.20;;;;;;;34.06;33.42;98729.25;79619;1293;3011643;-64
2023/08/06 08:55:08;;;;;;;36.90;6.50;;;;;;;34.08;32.94;98728.54;78396;1298;3052577;-66
2023/08/06 08:57:36;;;;;;;40.10;6.70;;;;;;;34.15;32.74;98727.53;79479;1298;3011634;-63
2023/08/06 13:57:53;;;;;;;11.30;2.40;;;;;;;40.04;20.60;98414.84;80028;1304;3013188;-64
2023/08/06 14:00:20;;;;;;;7.70;2.70;;;;;;;40.02;20.35;98413.58;78895;1306;3011860;-67
2023/08/06 14:02:46;;;;;;;8.90;3.00;;;;;;;40.16;20.69;98413.46;79124;1305;3012751;-68
2023/08/06 14:05:14;;;;;;;21.00;3.30;;;;;;;40.27;20.87;98414.59;78260;1306;3017312;-71
2023/08/06 14:07:41;;;;;;;10.30;3.00;;;;;;;40.25;20.87;98404.52;78954;1303;3012582;-70
2023/08/06 20:09:46;;;;;;;21.40;9.50;;;;;;;29.41;44.08;98262.63;80194;1300;3013831;-74
2023/08/06 20:12:13;;;;;;;20.30;9.20;;;;;;;29.37;44.25;98257.41;79213;1305;3015638;-69
2023/08/06 20:14:40;;;;;;;21.70;10.00;;;;;;;29.35;44.15;98248.02;79317;1304;3011540;-70
2023/08/06 20:17:07;;;;;;;26.50;11.20;;;;;;;29.34;43.96;98247.95;78171;1304;3027796;-73
2023/08/06 20:19:34;;;;;;;15.30;10.30;;;;;;;29.29;44.21;98242.91;79396;1305;3013059;-66
2023/08/06 20:22:02;;;;;;;20.20;10.70;;;;;;;29.22;44.36;98244.88;78300;1302;3013388;-67
2023/08/06 20:24:30;;;;;;;19.40;10.00;;;;;;;29.22;44.24;98245.84;78227;1301;3048568;-65
2023/08/06 20:26:57;;;;;;;14.70;10.50;;;;;;;29.19;44.33;98245.46;79389;1301;3013768;-63
2023/08/06 20:29:23;;;;;;;21.60;11.70;;;;;;;29.16;44.38;98244.98;79538;1301;3013097;-68
2023/08/06 20:31:51;;;;;;;24.60;10.70;;;;;;;29.12;44.38;98237.24;78221;1302;3028283;-70
2023/08/06 20:34:18;;;;;;;20.70;11.40;;;;;;;29.09;44.53;98236.26;79437;1299;3012773;-67
2023/08/06 20:36:44;;;;;;;18.40;11.10;;;;;;;29.08;44.61;98235.98;79500;1298;3013034;-67
2023/08/06 20:39:12;;;;;;;23.40;11.40;;;;;;;29.04;44.76;98231.95;78419;1302;3028379;-74
2023/08/06 20:41:39;;;;;;;23.00;11.10;;;;;;;29.00;44.83;98227.95;79487;1301;3018574;-71
2023/08/06 20:44:05;;;;;;;21.30;11.70;;;;;;;28.96;44.99;98221.86;80136;1298;3011694;-68
2023/08/06 20:46:33;;;;;;;20.00;9.80;;;;;;;28.92;45.15;98218.13;79185;1301;3026738;-72
2023/08/06 20:49:00;;;;;;;16.00;10.50;;;;;;;28.89;45.10;98213.96;80299;1298;3013391;-71
2023/08/06 20:51:26;;;;;;;23.50;11.00;;;;;;;28.89;45.11;98213.75;80387;1301;3012004;-70
2023/08/06 20:53:54;;;;;;;24.10;10.70;;;;;;;28.88;45.10;98208.31;79071;1311;3027335;-75
2023/08/06 20:56:20;;;;;;;24.90;10.50;;;;;;;28.85;45.31;98206.31;80268;1299;3013319;-74
2023/08/06 20:58:47;;;;;;;22.80;10.90;;;;;;;28.83;45.13;98206.92;80440;1302;3011355;-70
2023/08/06 21:01:15;;;;;;;18.40;9.90;;;;;;;28.79;45.32;98203.58;78967;1302;3026472;-77
2023/08/06 21:03:41;;;;;;;17.40;9.80;;;;;;;28.78;45.20;98201.02;80360;1299;3014666;-73
2023/08/06 21:06:08;;;;;;;18.40;10.20;;;;;;;28.79;45.25;98194.02;80455;1298;3011528;-70
2023/08/06 21:08:35;;;;;;;15.90;10.40;;;;;;;28.78;45.23;98194.05;79196;1301;3030229;-72
2023/08/06 21:11:02;;;;;;;18.00;10.60;;;;;;;28.76;45.33;98193.08;80541;1299;3019189;-71
2023/08/06 21:13:29;;;;;;;19.80;10.30;;;;;;;28.71;45.47;98187.75;80212;1298;3011190;-70
2023/08/06 21:15:58;;;;;;;17.40;9.10;;;;;;;28.69;45.44;98187.40;79144;1303;3027915;-70
2023/08/06 21:18:28;;;;;;;20.70;9.60;;;;;;;28.67;45.48;98186.59;80460;1301;3011501;-69
2023/08/06 21:20:57;;;;;;;19.50;9.20;;;;;;;28.64;45.54;98183.06;79122;1301;3056630;-72
2023/08/06 21:23:24;;;;;;;15.30;8.80;;;;;;;28.61;45.59;98179.70;80436;1301;3012711;-68
2023/08/06 21:25:57;;;;;;;15.60;8.90;;;;;;;28.59;45.63;98181.94;80391;1299;3013369;-70
2023/08/06 21:28:26;;;;;;;17.30;9.30;;;;;;;28.57;45.59;98181.32;79184;1301;3051984;-70
2023/08/06 21:30:56;;;;;;;15.20;8.80;;;;;;;28.55;45.72;98183.91;80548;1296;3011716;-69
2023/08/06 21:33:25;;;;;;;16.80;8.50;;;;;;;28.54;45.69;98184.80;79371;1305;3050476;-75
2023/08/06 21:35:53;;;;;;;18.10;8.90;;;;;;;28.54;45.70;98186.06;80654;1298;3013347;-67
2023/08/06 21:38:20;;;;;;;20.10;8.30;;;;;;;28.51;45.76;98185.36;80323;1296;3013218;-67
2023/08/06 21:40:48;;;;;;;21.70;8.80;;;;;;;28.46;45.97;98181.64;78372;1298;3051020;-67
2023/08/06 21:43:14;;;;;;;17.20;9.20;;;;;;;28.45;45.78;98177.42;79547;1304;3021346;-66
2023/08/06 21:45:41;;;;;;;16.50;8.40;;;;;;;28.44;45.80;98177.29;79378;1298;3011898;-65
2023/08/06 21:48:09;;;;;;;18.80;8.80;;;;;;;28.40;46.08;98171.70;78509;1295;3027113;-72
2023/08/06 21:50:35;;;;;;;16.20;9.00;;;;;;;28.34;46.11;98169.42;79611;1298;3013125;-68
2023/08/06 21:53:02;;;;;;;15.80;8.50;;;;;;;28.30;46.02;98167.77;79597;1296;3013170;-68
2023/08/06 21:55:31;;;;;;;19.40;7.90;;;;;;;28.30;46.08;98166.16;78182;1298;3025796;-65
2023/08/06 21:57:58;;;;;;;17.50;8.00;;;;;;;28.26;46.38;98159.87;79421;1299;3014765;-62
2023/08/06 22:00:24;;;;;;;15.00;8.00;;;;;;;28.23;46.49;98161.54;79495;1298;3011587;-65
2023/08/06 22:02:52;;;;;;;16.40;8.00;;;;;;;28.22;46.33;98156.61;78252;1299;3050953;-67
2023/08/06 22:05:19;;;;;;;19.00;8.20;;;;;;;28.18;46.67;98154.95;79383;1296;3020566;-66
2023/08/06 22:07:45;;;;;;;17.80;8.10;;;;;;;28.14;46.82;98153.00;79541;1295;3012015;-67
2023/08/06 22:10:13;;;;;;;22.00;8.80;;;;;;;28.09;46.78;98148.57;78193;1296;3025702;-65